sensor_id;sensor_type;location;lat;lon;timestamp;pressure;altitude;pressure_sealevel;temperature;humidity
63554;BME280;49699;48.072;7.800;2022-12-19T00:01:26;100373.09;;;-2.41;88.46
63554;BME280;49699;48.072;7.800;2022-12-19T00:03:55;100362.97;;;-2.35;88.40
63554;BME280;49699;48.072;7.800;2022-12-19T00:06:21;100353.66;;;-2.30;88.33
63554;BME280;49699;48.072;7.800;2022-12-19T00:08:48;100342.63;;;-2.27;88.11
63554;BME280;49699;48.072;7.800;2022-12-19T00:11:14;100357.09;;;-2.25;88.01
63554;BME280;49699;48.072;7.800;2022-12-19T00:13:40;100354.56;;;-2.23;87.64
63554;BME280;49699;48.072;7.800;2022-12-19T00:16:07;100347.78;;;-2.21;88.32
63554;BME280;49699;48.072;7.800;2022-12-19T00:18:32;100357.19;;;-2.17;87.63
63554;BME280;49699;48.072;7.800;2022-12-19T00:20:59;100352.06;;;-2.14;87.79
63554;BME280;49699;48.072;7.800;2022-12-19T00:23:26;100349.53;;;-2.14;88.06
63554;BME280;49699;48.072;7.800;2022-12-19T00:25:51;100353.78;;;-2.13;87.90
63554;BME280;49699;48.072;7.800;2022-12-19T00:28:17;100341.88;;;-2.13;88.13
63554;BME280;49699;48.072;7.800;2022-12-19T00:30:42;100333.41;;;-2.12;87.92
63554;BME280;49699;48.072;7.800;2022-12-19T00:33:07;100336.81;;;-2.10;88.05
63554;BME280;49699;48.072;7.800;2022-12-19T00:35:33;100318.97;;;-2.10;88.27
63554;BME280;49699;48.072;7.800;2022-12-19T00:37:58;100351.28;;;-2.08;88.82
63554;BME280;49699;48.072;7.800;2022-12-19T00:40:23;100337.66;;;-2.11;88.60
63554;BME280;49699;48.072;7.800;2022-12-19T00:42:48;100328.31;;;-2.10;88.84
63554;BME280;49699;48.072;7.800;2022-12-19T00:45:14;100340.22;;;-2.07;88.82
63554;BME280;49699;48.072;7.800;2022-12-19T00:47:39;100338.59;;;-2.02;88.58
63554;BME280;49699;48.072;7.800;2022-12-19T00:50:04;100347.97;;;-1.95;88.64
63554;BME280;49699;48.072;7.800;2022-12-19T00:52:30;100342.91;;;-1.91;88.44
63554;BME280;49699;48.072;7.800;2022-12-19T00:54:55;100342.94;;;-1.88;88.37
63554;BME280;49699;48.072;7.800;2022-12-19T00:57:20;100338.72;;;-1.84;88.19
63554;BME280;49699;48.072;7.800;2022-12-19T00:59:46;100332.78;;;-1.80;87.82
63554;BME280;49699;48.072;7.800;2022-12-19T01:02:11;100341.28;;;-1.78;87.99
63554;BME280;49699;48.072;7.800;2022-12-19T01:04:36;100338.75;;;-1.75;88.00
63554;BME280;49699;48.072;7.800;2022-12-19T01:07:02;100343.03;;;-1.72;87.70
63554;BME280;49699;48.072;7.800;2022-12-19T01:09:30;100328.59;;;-1.67;87.34
63554;BME280;49699;48.072;7.800;2022-12-19T01:11:55;100329.47;;;-1.65;87.52
63554;BME280;49699;48.072;7.800;2022-12-19T01:14:39;100343.97;;;-1.61;87.62
63554;BME280;49699;48.072;7.800;2022-12-19T01:17:06;100355.03;;;-1.56;87.57
63554;BME280;49699;48.072;7.800;2022-12-19T01:19:31;100365.28;;;-1.53;87.25
63554;BME280;49699;48.072;7.800;2022-12-19T01:21:56;100350.81;;;-1.51;87.04
63554;BME280;49699;48.072;7.800;2022-12-19T01:24:22;100351.69;;;-1.48;87.32
63554;BME280;49699;48.072;7.800;2022-12-19T01:26:48;100343.19;;;-1.48;87.20
63554;BME280;49699;48.072;7.800;2022-12-19T01:29:13;100350.00;;;-1.47;87.50
63554;BME280;49699;48.072;7.800;2022-12-19T01:31:38;100348.31;;;-1.45;87.53
63554;BME280;49699;48.072;7.800;2022-12-19T01:34:04;100342.38;;;-1.44;87.84
63554;BME280;49699;48.072;7.800;2022-12-19T01:36:29;100356.00;;;-1.44;87.60
63554;BME280;49699;48.072;7.800;2022-12-19T01:38:55;100377.25;;;-1.42;87.66
63554;BME280;49699;48.072;7.800;2022-12-19T01:41:20;100360.22;;;-1.41;87.66
63554;BME280;49699;48.072;7.800;2022-12-19T01:43:59;100355.13;;;-1.41;88.29
63554;BME280;49699;48.072;7.800;2022-12-19T01:46:26;100358.53;;;-1.42;87.94
63554;BME280;49699;48.072;7.800;2022-12-19T01:48:54;100361.94;;;-1.38;88.00
63554;BME280;49699;48.072;7.800;2022-12-19T01:51:21;100350.91;;;-1.37;88.20
63554;BME280;49699;48.072;7.800;2022-12-19T01:53:51;100359.41;;;-1.35;87.94
63554;BME280;49699;48.072;7.800;2022-12-19T01:56:19;100363.72;;;-1.31;87.91
63554;BME280;49699;48.072;7.800;2022-12-19T01:58:46;100350.09;;;-1.32;87.97
63554;BME280;49699;48.072;7.800;2022-12-19T02:01:12;100351.78;;;-1.31;88.25
63554;BME280;49699;48.072;7.800;2022-12-19T02:03:39;100352.66;;;-1.29;88.36
63554;BME280;49699;48.072;7.800;2022-12-19T02:06:08;100347.56;;;-1.27;88.31
63554;BME280;49699;48.072;7.800;2022-12-19T02:08:33;100345.84;;;-1.27;88.54
63554;BME280;49699;48.072;7.800;2022-12-19T02:10:59;100340.72;;;-1.25;88.12
63554;BME280;49699;48.072;7.800;2022-12-19T02:13:25;100345.00;;;-1.24;88.69
63554;BME280;49699;48.072;7.800;2022-12-19T02:18:53;100349.25;;;-1.22;88.34
63554;BME280;49699;48.072;7.800;2022-12-19T02:39:25;100336.56;;;-1.07;88.27
63554;BME280;49699;48.072;7.800;2022-12-19T02:41:55;100333.16;;;-1.06;88.29
63554;BME280;49699;48.072;7.800;2022-12-19T02:44:22;100334.84;;;-1.05;88.17
63554;BME280;49699;48.072;7.800;2022-12-19T02:46:50;100328.91;;;-1.02;88.19
63554;BME280;49699;48.072;7.800;2022-12-19T02:49:16;100328.06;;;-1.01;88.33
63554;BME280;49699;48.072;7.800;2022-12-19T02:51:41;100324.66;;;-1.01;88.36
63554;BME280;49699;48.072;7.800;2022-12-19T02:54:07;100331.47;;;-1.00;88.52
63554;BME280;49699;48.072;7.800;2022-12-19T02:56:39;100320.41;;;-0.99;88.76
63554;BME280;49699;48.072;7.800;2022-12-19T02:59:16;100327.22;;;-0.97;88.66
63554;BME280;49699;48.072;7.800;2022-12-19T03:01:47;100317.03;;;-0.95;88.62
63554;BME280;49699;48.072;7.800;2022-12-19T03:07:01;100323.84;;;-0.93;89.00
63554;BME280;49699;48.072;7.800;2022-12-19T03:09:34;100316.19;;;-0.91;89.17
63554;BME280;49699;48.072;7.800;2022-12-19T03:12:06;100313.59;;;-0.88;89.36
63554;BME280;49699;48.072;7.800;2022-12-19T03:14:33;100326.41;;;-0.87;89.30
63554;BME280;49699;48.072;7.800;2022-12-19T03:17:03;100309.38;;;-0.85;89.14
63554;BME280;49699;48.072;7.800;2022-12-19T03:19:30;100316.19;;;-0.82;89.06
63554;BME280;49699;48.072;7.800;2022-12-19T03:21:55;100308.53;;;-0.79;89.16
63554;BME280;49699;48.072;7.800;2022-12-19T03:24:21;100308.53;;;-0.78;89.40
63554;BME280;49699;48.072;7.800;2022-12-19T03:26:48;100297.47;;;-0.75;89.24
63554;BME280;49699;48.072;7.800;2022-12-19T03:29:16;100288.97;;;-0.76;89.01
63554;BME280;49699;48.072;7.800;2022-12-19T03:31:44;100277.88;;;-0.73;88.96
63554;BME280;49699;48.072;7.800;2022-12-19T03:36:48;100259.97;;;-0.70;89.21
63554;BME280;49699;48.072;7.800;2022-12-19T03:39:16;100276.16;;;-0.70;89.39
63554;BME280;49699;48.072;7.800;2022-12-19T03:41:43;100273.63;;;-0.73;89.49
63554;BME280;49699;48.072;7.800;2022-12-19T03:44:29;100294.06;;;-0.73;89.50
63554;BME280;49699;48.072;7.800;2022-12-19T03:46:58;100271.06;;;-0.74;89.97
63554;BME280;49699;48.072;7.800;2022-12-19T03:49:25;100274.47;;;-0.75;90.13
63554;BME280;49699;48.072;7.800;2022-12-19T03:51:58;100262.53;;;-0.75;90.20
63554;BME280;49699;48.072;7.800;2022-12-19T03:54:28;100270.22;;;-0.73;90.55
63554;BME280;49699;48.072;7.800;2022-12-19T03:56:57;100275.31;;;-0.72;90.69
63554;BME280;49699;48.072;7.800;2022-12-19T03:59:32;100262.53;;;-0.70;90.67
63554;BME280;49699;48.072;7.800;2022-12-19T04:01:59;100264.25;;;-0.66;90.54
63554;BME280;49699;48.072;7.800;2022-12-19T04:04:28;100268.50;;;-0.65;90.67
63554;BME280;49699;48.072;7.800;2022-12-19T04:06:54;100278.75;;;-0.62;90.57
63554;BME280;49699;48.072;7.800;2022-12-19T04:09:20;100278.75;;;-0.60;90.63
63554;BME280;49699;48.072;7.800;2022-12-19T04:11:48;100271.94;;;-0.57;90.61
63554;BME280;49699;48.072;7.800;2022-12-19T04:14:21;100276.19;;;-0.56;90.49
63554;BME280;49699;48.072;7.800;2022-12-19T04:16:50;100273.63;;;-0.53;90.56
63554;BME280;49699;48.072;7.800;2022-12-19T04:19:20;100271.06;;;-0.50;90.32
63554;BME280;49699;48.072;7.800;2022-12-19T04:21:51;100278.75;;;-0.48;90.43
63554;BME280;49699;48.072;7.800;2022-12-19T04:24:18;100283.88;;;-0.45;90.40
63554;BME280;49699;48.072;7.800;2022-12-19T04:26:46;100279.59;;;-0.43;90.12
63554;BME280;49699;48.072;7.800;2022-12-19T04:29:12;100273.66;;;-0.41;90.40
63554;BME280;49699;48.072;7.800;2022-12-19T04:31:38;100279.63;;;-0.37;90.22
63554;BME280;49699;48.072;7.800;2022-12-19T04:34:04;100279.59;;;-0.34;90.36
63554;BME280;49699;48.072;7.800;2022-12-19T04:36:29;100275.31;;;-0.33;89.97
63554;BME280;49699;48.072;7.800;2022-12-19T04:38:55;100298.34;;;-0.29;90.27
63554;BME280;49699;48.072;7.800;2022-12-19T04:41:21;100272.78;;;-0.27;89.86
63554;BME280;49699;48.072;7.800;2022-12-19T04:43:46;100285.56;;;-0.24;89.87
63554;BME280;49699;48.072;7.800;2022-12-19T04:46:11;100283.88;;;-0.22;89.70
63554;BME280;49699;48.072;7.800;2022-12-19T04:48:36;100268.53;;;-0.22;89.98
63554;BME280;49699;48.072;7.800;2022-12-19T04:51:02;100296.66;;;-0.22;89.88
63554;BME280;49699;48.072;7.800;2022-12-19T04:53:27;100267.66;;;-0.23;89.93
63554;BME280;49699;48.072;7.800;2022-12-19T04:56:03;100284.72;;;-0.23;90.00
63554;BME280;49699;48.072;7.800;2022-12-19T04:58:29;100281.31;;;-0.24;90.16
63554;BME280;49699;48.072;7.800;2022-12-19T05:00:58;100271.94;;;-0.25;90.37
63554;BME280;49699;48.072;7.800;2022-12-19T05:03:23;100280.47;;;-0.24;90.24
63554;BME280;49699;48.072;7.800;2022-12-19T05:05:49;100282.16;;;-0.23;90.23
63554;BME280;49699;48.072;7.800;2022-12-19T05:08:14;100272.78;;;-0.23;90.35
63554;BME280;49699;48.072;7.800;2022-12-19T05:10:39;100282.16;;;-0.22;90.26
63554;BME280;49699;48.072;7.800;2022-12-19T05:13:05;100274.50;;;-0.20;90.07
63554;BME280;49699;48.072;7.800;2022-12-19T05:15:30;100276.19;;;-0.19;90.46
63554;BME280;49699;48.072;7.800;2022-12-19T05:17:56;100266.78;;;-0.17;90.32
63554;BME280;49699;48.072;7.800;2022-12-19T05:20:21;100266.78;;;-0.17;90.45
63554;BME280;49699;48.072;7.800;2022-12-19T05:22:46;100265.09;;;-0.17;90.24
63554;BME280;49699;48.072;7.800;2022-12-19T05:25:12;100265.94;;;-0.16;90.27
63554;BME280;49699;48.072;7.800;2022-12-19T05:27:37;100263.38;;;-0.16;90.28
63554;BME280;49699;48.072;7.800;2022-12-19T05:30:02;100259.13;;;-0.16;90.30
63554;BME280;49699;48.072;7.800;2022-12-19T05:32:31;100260.81;;;-0.16;90.27
63554;BME280;49699;48.072;7.800;2022-12-19T05:34:56;100261.69;;;-0.16;90.45
63554;BME280;49699;48.072;7.800;2022-12-19T05:37:22;100257.41;;;-0.15;90.37
63554;BME280;49699;48.072;7.800;2022-12-19T05:39:47;100242.91;;;-0.15;90.35
63554;BME280;49699;48.072;7.800;2022-12-19T05:42:12;100239.50;;;-0.14;90.45
63554;BME280;49699;48.072;7.800;2022-12-19T05:44:37;100246.31;;;-0.14;90.35
63554;BME280;49699;48.072;7.800;2022-12-19T05:47:03;100253.16;;;-0.15;90.40
63554;BME280;49699;48.072;7.800;2022-12-19T05:49:28;100254.00;;;-0.14;90.66
63554;BME280;49699;48.072;7.800;2022-12-19T05:51:53;100255.69;;;-0.15;90.54
63554;BME280;49699;48.072;7.800;2022-12-19T05:54:19;100246.31;;;-0.14;90.66
63554;BME280;49699;48.072;7.800;2022-12-19T05:56:44;100248.03;;;-0.13;90.88
63554;BME280;49699;48.072;7.800;2022-12-19T05:59:09;100243.75;;;-0.13;90.72
63554;BME280;49699;48.072;7.800;2022-12-19T06:01:36;100230.97;;;-0.13;90.64
63554;BME280;49699;48.072;7.800;2022-12-19T06:04:01;100234.38;;;-0.12;90.73
63554;BME280;49699;48.072;7.800;2022-12-19T06:06:28;100236.09;;;-0.13;90.78
63554;BME280;49699;48.072;7.800;2022-12-19T06:08:54;100248.03;;;-0.12;90.90
63554;BME280;49699;48.072;7.800;2022-12-19T06:11:19;100251.44;;;-0.11;90.92
63554;BME280;49699;48.072;7.800;2022-12-19T06:13:45;100242.91;;;-0.10;90.84
63554;BME280;49699;48.072;7.800;2022-12-19T06:16:11;100236.94;;;-0.09;90.75
63554;BME280;49699;48.072;7.800;2022-12-19T06:18:37;100229.28;;;-0.09;90.88
63554;BME280;49699;48.072;7.800;2022-12-19T06:21:03;100239.50;;;-0.09;90.61
63554;BME280;49699;48.072;7.800;2022-12-19T06:23:30;100229.28;;;-0.09;90.80
63554;BME280;49699;48.072;7.800;2022-12-19T06:25:56;100225.84;;;-0.10;91.12
63554;BME280;49699;48.072;7.800;2022-12-19T06:28:22;100224.16;;;-0.09;91.05
63554;BME280;49699;48.072;7.800;2022-12-19T06:30:47;100219.88;;;-0.09;90.99
63554;BME280;49699;48.072;7.800;2022-12-19T06:33:12;100224.16;;;-0.08;91.21
63554;BME280;49699;48.072;7.800;2022-12-19T06:35:38;100220.75;;;-0.07;91.07
63554;BME280;49699;48.072;7.800;2022-12-19T06:38:03;100226.72;;;-0.06;91.03
63554;BME280;49699;48.072;7.800;2022-12-19T06:40:28;100224.16;;;-0.06;90.84
63554;BME280;49699;48.072;7.800;2022-12-19T06:43:12;100226.72;;;-0.05;90.96
63554;BME280;49699;48.072;7.800;2022-12-19T06:45:37;100221.59;;;-0.05;91.34
63554;BME280;49699;48.072;7.800;2022-12-19T06:48:03;100213.91;;;-0.03;91.13
63554;BME280;49699;48.072;7.800;2022-12-19T06:50:28;100219.88;;;-0.03;91.01
63554;BME280;49699;48.072;7.800;2022-12-19T06:52:53;100218.19;;;-0.04;91.22
63554;BME280;49699;48.072;7.800;2022-12-19T06:55:19;100220.75;;;-0.04;91.19
63554;BME280;49699;48.072;7.800;2022-12-19T06:57:44;100221.59;;;-0.03;91.37
63554;BME280;49699;48.072;7.800;2022-12-19T07:00:14;100223.28;;;-0.02;91.23
63554;BME280;49699;48.072;7.800;2022-12-19T07:02:43;100226.72;;;-0.02;91.29
63554;BME280;49699;48.072;7.800;2022-12-19T07:05:09;100221.59;;;-0.02;91.23
63554;BME280;49699;48.072;7.800;2022-12-19T07:07:35;100230.13;;;-0.01;91.37
63554;BME280;49699;48.072;7.800;2022-12-19T07:10:00;100242.91;;;-0.01;91.27
63554;BME280;49699;48.072;7.800;2022-12-19T07:12:26;100248.00;;;0.00;91.38
63554;BME280;49699;48.072;7.800;2022-12-19T07:14:51;100250.56;;;0.00;91.25
63554;BME280;49699;48.072;7.800;2022-12-19T07:17:16;100243.72;;;0.01;91.35
63554;BME280;49699;48.072;7.800;2022-12-19T07:19:43;100261.66;;;0.01;91.36
63554;BME280;49699;48.072;7.800;2022-12-19T07:22:09;100263.34;;;0.00;91.29
63554;BME280;49699;48.072;7.800;2022-12-19T07:24:34;100267.66;;;0.00;91.26
63554;BME280;49699;48.072;7.800;2022-12-19T07:27:00;100270.22;;;0.00;91.38
63554;BME280;49699;48.072;7.800;2022-12-19T07:29:26;100272.78;;;0.00;91.34
63554;BME280;49699;48.072;7.800;2022-12-19T07:31:51;100276.16;;;0.02;91.32
63554;BME280;49699;48.072;7.800;2022-12-19T07:34:16;100279.56;;;0.03;91.45
63554;BME280;49699;48.072;7.800;2022-12-19T07:36:42;100280.41;;;0.02;91.20
63554;BME280;49699;48.072;7.800;2022-12-19T07:39:07;100288.94;;;0.02;91.45
63554;BME280;49699;48.072;7.800;2022-12-19T07:41:34;100286.38;;;0.02;91.41
63554;BME280;49699;48.072;7.800;2022-12-19T07:44:00;100299.19;;;0.02;91.38
63554;BME280;49699;48.072;7.800;2022-12-19T07:46:26;100299.19;;;0.05;91.56
63554;BME280;49699;48.072;7.800;2022-12-19T07:48:52;100299.19;;;0.07;91.46
63554;BME280;49699;48.072;7.800;2022-12-19T07:51:17;100298.34;;;0.09;91.53
63554;BME280;49699;48.072;7.800;2022-12-19T07:53:42;100301.75;;;0.13;91.26
63554;BME280;49699;48.072;7.800;2022-12-19T07:56:07;100303.44;;;0.14;91.36
63554;BME280;49699;48.072;7.800;2022-12-19T07:58:33;100296.63;;;0.17;91.12
63554;BME280;49699;48.072;7.800;2022-12-19T08:00:58;100297.44;;;0.21;91.07
63554;BME280;49699;48.072;7.800;2022-12-19T08:03:27;100299.16;;;0.23;91.25
63554;BME280;49699;48.072;7.800;2022-12-19T08:05:57;100311.94;;;0.25;90.99
63554;BME280;49699;48.072;7.800;2022-12-19T08:08:22;100310.25;;;0.28;91.02
63554;BME280;49699;48.072;7.800;2022-12-19T08:10:48;100304.28;;;0.36;91.07
63554;BME280;49699;48.072;7.800;2022-12-19T08:13:14;100299.09;;;0.42;90.76
63554;BME280;49699;48.072;7.800;2022-12-19T08:15:39;100307.63;;;0.48;90.62
63554;BME280;49699;48.072;7.800;2022-12-19T08:18:04;100299.94;;;0.53;90.38
63554;BME280;49699;48.072;7.800;2022-12-19T08:20:30;100287.09;;;0.57;90.26
63554;BME280;49699;48.072;7.800;2022-12-19T08:22:55;100302.47;;;0.60;90.03
63554;BME280;49699;48.072;7.800;2022-12-19T08:25:20;100301.63;;;0.61;90.09
63554;BME280;49699;48.072;7.800;2022-12-19T08:27:46;100299.03;;;0.64;90.05
63554;BME280;49699;48.072;7.800;2022-12-19T08:30:11;100294.78;;;0.66;89.77
63554;BME280;49699;48.072;7.800;2022-12-19T08:32:38;100293.06;;;0.72;89.97
63554;BME280;49699;48.072;7.800;2022-12-19T08:35:04;100296.41;;;0.81;89.78
63554;BME280;49699;48.072;7.800;2022-12-19T08:37:30;100299.75;;;0.94;89.64
63554;BME280;49699;48.072;7.800;2022-12-19T08:39:56;100289.47;;;1.06;88.99
63554;BME280;49699;48.072;7.800;2022-12-19T08:42:21;100288.56;;;1.13;88.74
63554;BME280;49699;48.072;7.800;2022-12-19T08:44:46;100278.28;;;1.19;88.55
63554;BME280;49699;48.072;7.800;2022-12-19T08:47:12;100276.53;;;1.23;88.44
63554;BME280;49699;48.072;7.800;2022-12-19T08:49:37;100267.09;;;1.28;88.34
63554;BME280;49699;48.072;7.800;2022-12-19T08:52:02;100258.47;;;1.43;87.89
63554;BME280;49699;48.072;7.800;2022-12-19T08:54:28;100254.09;;;1.52;87.64
63554;BME280;49699;48.072;7.800;2022-12-19T08:56:53;100257.50;;;1.54;87.21
63554;BME280;49699;48.072;7.800;2022-12-19T08:59:18;100262.59;;;1.60;86.90
63554;BME280;49699;48.072;7.800;2022-12-19T09:01:44;100273.63;;;1.67;86.61
63554;BME280;49699;48.072;7.800;2022-12-19T09:04:09;100271.91;;;1.72;86.65
63554;BME280;49699;48.072;7.800;2022-12-19T09:06:34;100270.13;;;1.79;86.14
63554;BME280;49699;48.072;7.800;2022-12-19T09:09:01;100278.59;;;1.88;85.87
63554;BME280;49699;48.072;7.800;2022-12-19T09:11:27;100276.81;;;1.96;85.54
63554;BME280;49699;48.072;7.800;2022-12-19T09:13:54;100280.16;;;2.01;85.33
63554;BME280;49699;48.072;7.800;2022-12-19T09:16:20;100276.72;;;2.05;85.10
63554;BME280;49699;48.072;7.800;2022-12-19T09:18:46;100269.84;;;2.07;85.15
63554;BME280;49699;48.072;7.800;2022-12-19T09:21:12;100271.56;;;2.07;85.16
63554;BME280;49699;48.072;7.800;2022-12-19T09:23:38;100272.41;;;2.09;84.89
63554;BME280;49699;48.072;7.800;2022-12-19T09:26:05;100270.69;;;2.09;85.13
63554;BME280;49699;48.072;7.800;2022-12-19T09:28:31;100259.56;;;2.11;85.06
63554;BME280;49699;48.072;7.800;2022-12-19T09:30:58;100256.13;;;2.12;85.06
63554;BME280;49699;48.072;7.800;2022-12-19T09:33:23;100254.34;;;2.15;84.85
63554;BME280;49699;48.072;7.800;2022-12-19T09:35:49;100260.31;;;2.17;85.18
63554;BME280;49699;48.072;7.800;2022-12-19T09:38:15;100256.06;;;2.16;84.86
63554;BME280;49699;48.072;7.800;2022-12-19T09:40:47;100253.53;;;2.15;84.76
63554;BME280;49699;48.072;7.800;2022-12-19T09:43:20;100245.78;;;2.16;85.09
63554;BME280;49699;48.072;7.800;2022-12-19T09:45:56;100244.03;;;2.20;84.74
63554;BME280;49699;48.072;7.800;2022-12-19T09:48:27;100240.56;;;2.25;84.57
63554;BME280;49699;48.072;7.800;2022-12-19T09:51:00;100238.81;;;2.29;84.57
63554;BME280;49699;48.072;7.800;2022-12-19T09:53:30;100232.81;;;2.30;83.95
63554;BME280;49699;48.072;7.800;2022-12-19T09:55:57;100235.41;;;2.27;84.33
63554;BME280;49699;48.072;7.800;2022-12-19T10:01:29;100223.31;;;2.36;83.94
63554;BME280;49699;48.072;7.800;2022-12-19T10:03:57;100229.97;;;2.51;83.71
63554;BME280;49699;48.072;7.800;2022-12-19T10:06:25;100230.47;;;2.79;83.11
63554;BME280;49699;48.072;7.800;2022-12-19T10:08:50;100231.78;;;3.07;82.15
63554;BME280;49699;48.072;7.800;2022-12-19T10:16:18;100221.22;;;3.78;79.38
63554;BME280;49699;48.072;7.800;2022-12-19T10:19:00;100217.38;;;4.00;79.11
63554;BME280;49699;48.072;7.800;2022-12-19T10:26:27;100205.41;;;4.42;76.87
63554;BME280;49699;48.072;7.800;2022-12-19T10:31:40;100184.78;;;4.42;76.98
63554;BME280;49699;48.072;7.800;2022-12-19T10:34:17;100193.28;;;4.47;76.68
63554;BME280;49699;48.072;7.800;2022-12-19T10:36:43;100211.41;;;4.43;76.80
63554;BME280;49699;48.072;7.800;2022-12-19T10:41:50;100206.72;;;4.18;77.92
63554;BME280;49699;48.072;7.800;2022-12-19T10:44:18;100202.63;;;4.10;77.84
63554;BME280;49699;48.072;7.800;2022-12-19T10:46:44;100182.06;;;4.07;78.30
63554;BME280;49699;48.072;7.800;2022-12-19T10:49:11;100181.13;;;4.11;78.39
63554;BME280;49699;48.072;7.800;2022-12-19T10:51:37;100166.53;;;4.11;78.36
63554;BME280;49699;48.072;7.800;2022-12-19T10:54:03;100174.09;;;4.19;78.14
63554;BME280;49699;48.072;7.800;2022-12-19T10:56:29;100169.75;;;4.21;77.93
63554;BME280;49699;48.072;7.800;2022-12-19T10:58:55;100152.66;;;4.17;78.07
63554;BME280;49699;48.072;7.800;2022-12-19T11:01:29;100175.16;;;4.09;78.37
63554;BME280;49699;48.072;7.800;2022-12-19T11:04:17;100144.50;;;3.95;78.86
63554;BME280;49699;48.072;7.800;2022-12-19T11:09:35;100162.94;;;3.75;79.52
63554;BME280;49699;48.072;7.800;2022-12-19T11:12:09;100151.09;;;3.65;79.48
63554;BME280;49699;48.072;7.800;2022-12-19T11:14:37;100162.31;;;3.61;79.73
63554;BME280;49699;48.072;7.800;2022-12-19T11:17:02;100128.06;;;3.58;79.89
63554;BME280;49699;48.072;7.800;2022-12-19T11:21:58;100137.63;;;3.51;80.54
63554;BME280;49699;48.072;7.800;2022-12-19T11:24:33;100144.44;;;3.54;80.45
63554;BME280;49699;48.072;7.800;2022-12-19T11:27:00;100157.19;;;3.60;80.44
63554;BME280;49699;48.072;7.800;2022-12-19T11:29:40;100129.63;;;3.65;80.28
63554;BME280;49699;48.072;7.800;2022-12-19T11:32:19;100145.84;;;3.70;80.26
63554;BME280;49699;48.072;7.800;2022-12-19T11:34:47;100120.94;;;3.72;80.61
63554;BME280;49699;48.072;7.800;2022-12-19T11:37:15;100118.09;;;3.86;80.37
63554;BME280;49699;48.072;7.800;2022-12-19T11:40:30;100133.22;;;4.02;79.60
63554;BME280;49699;48.072;7.800;2022-12-19T11:45:13;100127.88;;;4.11;79.46
63554;BME280;49699;48.072;7.800;2022-12-19T11:48:00;100139.22;;;4.03;79.99
63554;BME280;49699;48.072;7.800;2022-12-19T11:50:29;100133.28;;;3.98;79.82
63554;BME280;49699;48.072;7.800;2022-12-19T11:53:09;100122.28;;;3.91;80.14
63554;BME280;49699;48.072;7.800;2022-12-19T11:58:04;100113.88;;;3.81;80.92
63554;BME280;49699;48.072;7.800;2022-12-19T12:00:30;100107.06;;;3.77;80.98
63554;BME280;49699;48.072;7.800;2022-12-19T12:05:42;100108.06;;;3.72;81.29
63554;BME280;49699;48.072;7.800;2022-12-19T12:10:46;100092.59;;;3.73;81.30
63554;BME280;49699;48.072;7.800;2022-12-19T12:16:02;100087.19;;;3.86;81.07
63554;BME280;49699;48.072;7.800;2022-12-19T12:23:46;100067.88;;;4.06;80.73
63554;BME280;49699;48.072;7.800;2022-12-19T12:26:21;100070.28;;;4.14;80.41
63554;BME280;49699;48.072;7.800;2022-12-19T12:31:24;100066.91;;;4.12;80.66
63554;BME280;49699;48.072;7.800;2022-12-19T12:33:58;100071.16;;;4.13;80.64
63554;BME280;49699;48.072;7.800;2022-12-19T12:36:42;100056.53;;;4.13;80.61
63554;BME280;49699;48.072;7.800;2022-12-19T12:44:27;100059.13;;;4.13;80.88
63554;BME280;49699;48.072;7.800;2022-12-19T12:47:00;100062.50;;;4.15;80.86
63554;BME280;49699;48.072;7.800;2022-12-19T12:51:54;100070.25;;;4.15;81.21
63554;BME280;49699;48.072;7.800;2022-12-19T12:54:20;100058.25;;;4.14;81.24
63554;BME280;49699;48.072;7.800;2022-12-19T12:56:49;100066.91;;;4.12;81.42
63554;BME280;49699;48.072;7.800;2022-12-19T12:59:25;100070.41;;;4.09;81.74
63554;BME280;49699;48.072;7.800;2022-12-19T13:01:54;100066.09;;;4.10;82.07
63554;BME280;49699;48.072;7.800;2022-12-19T13:07:04;100069.41;;;4.15;82.13
63554;BME280;49699;48.072;7.800;2022-12-19T13:09:36;100078.78;;;4.17;82.16
63554;BME280;49699;48.072;7.800;2022-12-19T13:12:03;100073.56;;;4.21;81.65
63554;BME280;49699;48.072;7.800;2022-12-19T13:15:15;100064.94;;;4.23;81.72
63554;BME280;49699;48.072;7.800;2022-12-19T13:24:58;100079.50;;;4.26;82.26
63554;BME280;49699;48.072;7.800;2022-12-19T13:32:24;100091.44;;;4.30;82.27
63554;BME280;49699;48.072;7.800;2022-12-19T13:34:54;100091.44;;;4.30;82.18
63554;BME280;49699;48.072;7.800;2022-12-19T13:37:25;100093.19;;;4.28;82.51
63554;BME280;49699;48.072;7.800;2022-12-19T13:42:26;100086.31;;;4.28;82.47
63554;BME280;49699;48.072;7.800;2022-12-19T13:45:15;100079.44;;;4.29;82.38
63554;BME280;49699;48.072;7.800;2022-12-19T13:47:44;100076.88;;;4.27;82.44
63554;BME280;49699;48.072;7.800;2022-12-19T13:50:29;100070.00;;;4.28;82.43
63554;BME280;49699;48.072;7.800;2022-12-19T13:52:56;100076.00;;;4.28;82.74
63554;BME280;49699;48.072;7.800;2022-12-19T13:55:21;100078.59;;;4.28;82.84
63554;BME280;49699;48.072;7.800;2022-12-19T13:57:48;100092.34;;;4.27;82.92
63554;BME280;49699;48.072;7.800;2022-12-19T14:00:16;100082.94;;;4.25;82.86
63554;BME280;49699;48.072;7.800;2022-12-19T14:02:46;100074.47;;;4.19;83.20
63554;BME280;49699;48.072;7.800;2022-12-19T14:05:19;100077.22;;;4.12;83.39
63554;BME280;49699;48.072;7.800;2022-12-19T14:07:46;100086.66;;;4.11;83.68
63554;BME280;49699;48.072;7.800;2022-12-19T14:10:13;100090.03;;;4.13;83.80
63554;BME280;49699;48.072;7.800;2022-12-19T14:12:40;100085.69;;;4.15;83.80
63554;BME280;49699;48.072;7.800;2022-12-19T14:15:30;100083.13;;;4.15;83.73
63554;BME280;49699;48.072;7.800;2022-12-19T14:17:58;100091.66;;;4.17;83.61
63554;BME280;49699;48.072;7.800;2022-12-19T14:20:24;100082.22;;;4.18;83.67
63554;BME280;49699;48.072;7.800;2022-12-19T14:22:59;100080.56;;;4.15;83.89
63554;BME280;49699;48.072;7.800;2022-12-19T14:25:29;100076.31;;;4.13;83.85
63554;BME280;49699;48.072;7.800;2022-12-19T14:28:02;100071.25;;;4.10;84.32
63554;BME280;49699;48.072;7.800;2022-12-19T14:30:29;100065.31;;;4.06;84.60
63554;BME280;49699;48.072;7.800;2022-12-19T14:32:58;100067.97;;;4.02;84.64
63554;BME280;49699;48.072;7.800;2022-12-19T14:35:30;100067.19;;;3.98;84.64